Time;durP1;ratioP1;P1;durP2;ratioP2;P2;SDS_P1;SDS_P2;PMS_P1;PMS_P2;Temp;Humidity;BMP_temperature;BMP_pressure;BME280_temperature;BME280_humidity;BME280_pressure;Samples;Min_cycle;Max_cycle;Signal;HPM_P1;HPM_P2
2022/02/11 00:00:26;;;;;;;8.07;1.33;;;3.80;99.90;;;;;;4961410;28;20049;-85
2022/02/11 00:07:46;;;;;;;7.13;1.40;;;3.70;99.90;;;;;;4962552;28;20023;-84
2022/02/11 00:10:12;;;;;;;9.00;1.20;;;3.70;99.90;;;;;;4944494;28;20062;-85
2022/02/11 00:12:39;;;;;;;6.20;1.50;;;3.70;99.90;;;;;;4964562;28;20050;-83
2022/02/11 00:17:35;;;;;;;7.10;1.50;;;3.60;99.90;;;;;;4992839;28;20046;-83
2022/02/11 00:20:03;;;;;;;8.40;1.10;;;3.60;99.90;;;;;;4963011;28;20050;-85
2022/02/11 00:22:29;;;;;;;4.27;1.23;;;3.60;99.90;;;;;;4961754;28;20050;-84
2022/02/11 00:24:56;;;;;;;9.30;2.60;;;3.60;99.90;;;;;;4965107;28;20030;-82
2022/02/11 00:28:01;;;;;;;7.30;1.23;;;3.60;99.90;;;;;;4961630;28;20420;-83
2022/02/11 00:33:26;;;;;;;6.33;1.50;;;3.60;99.90;;;;;;4986856;28;20035;-79
2022/02/11 00:35:59;;;;;;;11.07;1.30;;;3.50;99.90;;;;;;4979992;28;20053;-79
2022/02/11 00:44:58;;;;;;;7.60;1.53;;;3.50;99.90;;;;;;4959839;28;20393;-76
2022/02/11 01:05:43;;;;;;;12.37;2.70;;;3.80;99.90;;;;;;4961218;28;20050;-80
2022/02/11 01:08:10;;;;;;;7.03;1.80;;;3.90;99.90;;;;;;4976173;28;20053;-81
2022/02/11 01:10:38;;;;;;;17.83;2.43;;;3.90;99.90;;;;;;4944146;28;20114;-80
2022/02/11 01:13:05;;;;;;;11.40;2.50;;;4.00;99.90;;;;;;4961336;28;20083;-81
2022/02/11 01:15:43;;;;;;;15.63;3.53;;;4.00;99.90;;;;;;4947830;28;20034;-81
2022/02/11 01:18:32;;;;;;;7.30;1.70;;;4.00;99.90;;;;;;4973081;28;20030;-80
2022/02/11 01:21:04;;;;;;;10.70;1.63;;;4.10;99.90;;;;;;4992274;28;20027;-81
2022/02/11 01:32:20;;;;;;;12.33;1.43;;;3.90;99.90;;;;;;4943325;29;20039;-81
2022/02/11 01:37:41;;;;;;;8.88;1.30;;;3.80;99.90;;;;;;4994458;28;20034;-79
2022/02/11 01:50:43;;;;;;;8.93;1.03;;;3.80;99.90;;;;;;4973755;28;20030;-82
2022/02/11 02:04:20;;;;;;;9.40;1.35;;;3.70;99.90;;;;;;4961145;28;20062;-82
2022/02/11 02:14:55;;;;;;;14.90;2.00;;;4.00;99.90;;;;;;4951453;28;20033;-75
2022/02/11 02:38:45;;;;;;;8.75;1.77;;;4.10;99.90;;;;;;4962320;28;20051;-75
2022/02/11 02:58:11;;;;;;;10.43;1.93;;;4.10;99.90;;;;;;4982277;28;20470;-76
2022/02/11 03:01:33;;;;;;;9.80;1.90;;;4.10;99.90;;;;;;4984288;28;20517;-75
2022/02/11 05:00:15;;;;;;;18.65;1.98;;;4.80;99.90;;;;;;4994961;28;20069;-75
2022/02/11 05:02:45;;;;;;;23.17;1.70;;;4.80;99.90;;;;;;4990936;28;20034;-75
2022/02/11 05:05:12;;;;;;;14.45;1.33;;;4.80;99.90;;;;;;4976555;28;20050;-74
2022/02/11 05:07:39;;;;;;;20.05;2.17;;;4.70;99.90;;;;;;4977428;28;20721;-73
2022/02/11 05:10:07;;;;;;;17.33;1.73;;;4.70;99.90;;;;;;4977549;28;20046;-74
2022/02/11 05:12:35;;;;;;;10.43;1.25;;;4.70;99.90;;;;;;4998517;28;20026;-73
2022/02/11 05:15:08;;;;;;;14.32;1.35;;;4.80;99.90;;;;;;4991589;28;20031;-74
2022/02/11 05:17:39;;;;;;;10.32;1.52;;;4.70;99.90;;;;;;4992874;28;20037;-73
2022/02/11 05:20:07;;;;;;;15.80;1.38;;;4.70;99.90;;;;;;4977572;28;20039;-73
2022/02/11 05:22:33;;;;;;;17.23;1.67;;;4.70;99.90;;;;;;4977257;28;20470;-73
2022/02/11 05:25:00;;;;;;;10.65;0.70;;;4.70;99.90;;;;;;4975212;28;20036;-73
2022/02/11 05:27:27;;;;;;;20.70;1.00;;;4.70;99.90;;;;;;4973760;28;20030;-73
2022/02/11 05:29:53;;;;;;;13.88;0.80;;;4.70;99.90;;;;;;4992252;28;20026;-73
2022/02/11 05:32:20;;;;;;;14.23;2.17;;;4.70;99.90;;;;;;4998905;28;20033;-73
2022/02/11 05:34:46;;;;;;;9.05;0.93;;;4.70;99.90;;;;;;4974247;28;20398;-73
2022/02/11 05:37:13;;;;;;;12.70;1.50;;;4.70;99.90;;;;;;4977152;28;20050;-73
2022/02/11 05:39:39;;;;;;;14.82;1.20;;;4.70;99.90;;;;;;4977864;28;20038;-73
2022/02/11 05:42:06;;;;;;;11.43;1.33;;;4.70;99.90;;;;;;4993497;28;20030;-73
2022/02/11 05:44:32;;;;;;;17.83;1.90;;;4.70;99.90;;;;;;4977211;28;20038;-73
2022/02/11 05:46:58;;;;;;;12.18;1.60;;;4.70;99.90;;;;;;4995011;28;20034;-75
2022/02/11 05:49:25;;;;;;;9.20;0.80;;;4.70;99.90;;;;;;4961880;28;20485;-73
2022/02/11 05:51:51;;;;;;;15.32;1.98;;;4.70;99.90;;;;;;4975921;28;20039;-73
2022/02/11 05:54:18;;;;;;;13.63;1.60;;;4.60;99.90;;;;;;4989413;28;20030;-73
2022/02/11 05:56:44;;;;;;;11.82;1.10;;;4.50;99.90;;;;;;4977089;28;20035;-73
2022/02/11 05:59:10;;;;;;;15.50;2.05;;;4.50;99.90;;;;;;4965759;28;20042;-73
2022/02/11 06:01:37;;;;;;;13.02;2.03;;;4.50;99.90;;;;;;4996079;28;20056;-73
2022/02/11 06:04:03;;;;;;;16.35;1.25;;;4.40;99.90;;;;;;4997924;28;20511;-72
2022/02/11 06:06:30;;;;;;;13.50;1.20;;;4.50;99.90;;;;;;4994673;28;20041;-72
2022/02/11 06:08:56;;;;;;;17.65;1.58;;;4.50;99.90;;;;;;4994750;28;20037;-72
2022/02/11 06:11:27;;;;;;;13.67;1.73;;;4.50;99.90;;;;;;4994141;28;20385;-73
2022/02/11 06:13:53;;;;;;;32.13;5.70;;;4.50;99.90;;;;;;4996079;28;20508;-72
2022/02/11 06:16:19;;;;;;;11.95;1.67;;;4.50;99.90;;;;;;4980328;28;20043;-73
2022/02/11 06:18:46;;;;;;;16.83;2.38;;;4.50;99.90;;;;;;4980591;28;20038;-73
2022/02/11 06:21:12;;;;;;;17.15;1.75;;;4.50;99.90;;;;;;4966799;28;20046;-72
2022/02/11 06:23:38;;;;;;;14.43;1.52;;;4.50;99.90;;;;;;4994912;28;20034;-73
2022/02/11 06:26:05;;;;;;;18.23;2.38;;;4.50;99.90;;;;;;4978253;28;20382;-74
2022/02/11 06:28:31;;;;;;;10.75;1.10;;;4.50;99.90;;;;;;4973763;28;20033;-73
2022/02/11 06:30:58;;;;;;;15.10;1.73;;;4.40;99.90;;;;;;4982650;28;20038;-73
2022/02/11 06:33:33;;;;;;;13.80;1.50;;;4.40;99.90;;;;;;4995308;28;20470;-73
2022/02/11 06:36:00;;;;;;;12.63;1.00;;;4.30;99.90;;;;;;4994112;28;20042;-74
2022/02/11 06:38:26;;;;;;;14.83;1.13;;;4.20;99.90;;;;;;4956546;28;20076;-74
2022/02/11 06:40:53;;;;;;;9.43;0.93;;;4.10;99.90;;;;;;4982378;28;20041;-74
2022/02/11 06:43:19;;;;;;;12.37;0.77;;;4.10;99.90;;;;;;4995518;28;20031;-74
2022/02/11 06:45:46;;;;;;;13.73;1.63;;;4.00;99.90;;;;;;4999027;28;20393;-74
2022/02/11 06:48:16;;;;;;;8.53;1.00;;;4.00;99.90;;;;;;4994646;28;20049;-74
2022/02/11 06:50:44;;;;;;;8.97;1.20;;;4.00;99.90;;;;;;4981871;28;20044;-74
2022/02/11 06:53:13;;;;;;;11.75;1.52;;;3.90;99.90;;;;;;4994317;28;20034;-73
2022/02/11 06:55:40;;;;;;;17.93;2.30;;;3.90;99.90;;;;;;4976657;28;20041;-74
2022/02/11 06:58:07;;;;;;;18.80;1.67;;;3.80;99.90;;;;;;4978219;28;20053;-74
2022/02/11 07:00:33;;;;;;;12.07;1.30;;;3.80;99.90;;;;;;4972313;28;20066;-73
2022/02/11 07:03:00;;;;;;;12.83;1.17;;;3.80;99.90;;;;;;4998133;28;20038;-74
2022/02/11 07:05:27;;;;;;;10.23;1.60;;;3.80;99.90;;;;;;4997233;28;20513;-74
2022/02/11 07:07:54;;;;;;;20.60;1.73;;;3.70;99.90;;;;;;4974578;28;20034;-74
2022/02/11 07:10:20;;;;;;;16.30;1.30;;;3.70;99.90;;;;;;4995095;28;20042;-73
2022/02/11 07:12:47;;;;;;;13.85;1.75;;;3.70;99.90;;;;;;4966389;28;20026;-74
2022/02/11 07:15:13;;;;;;;15.77;1.60;;;3.70;99.90;;;;;;4983530;28;20046;-74
2022/02/11 07:17:40;;;;;;;16.73;1.83;;;3.70;99.90;;;;;;4958702;28;20050;-74
2022/02/11 07:20:07;;;;;;;11.27;1.50;;;3.60;99.90;;;;;;4980476;28;20030;-73
2022/02/11 07:22:34;;;;;;;9.50;1.48;;;3.70;99.90;;;;;;4980731;28;20164;-73
2022/02/11 07:25:03;;;;;;;14.38;2.08;;;3.70;99.90;;;;;;4980509;28;20053;-74
2022/02/11 07:27:29;;;;;;;18.20;2.45;;;3.70;99.90;;;;;;4978162;28;20120;-74
2022/02/11 07:29:56;;;;;;;18.77;2.30;;;3.70;99.90;;;;;;4999496;28;20565;-74
2022/02/11 07:32:24;;;;;;;20.60;2.03;;;3.70;99.90;;;;;;4994444;28;20038;-74
2022/02/11 07:34:55;;;;;;;23.50;2.80;;;3.80;99.90;;;;;;4999726;28;20049;-74
2022/02/11 07:37:22;;;;;;;14.32;1.88;;;3.80;99.90;;;;;;4995084;28;20390;-74
2022/02/11 07:39:48;;;;;;;15.67;1.93;;;3.80;99.90;;;;;;4969609;28;20038;-76
2022/02/11 07:42:15;;;;;;;19.93;1.57;;;3.80;99.90;;;;;;4986416;28;20144;-73
2022/02/11 07:44:42;;;;;;;15.35;1.50;;;3.80;99.90;;;;;;4984050;28;20041;-74
2022/02/11 07:47:08;;;;;;;18.08;1.58;;;3.80;99.90;;;;;;4982656;28;20468;-74
2022/02/11 07:49:36;;;;;;;14.00;1.87;;;3.90;99.90;;;;;;4996613;28;20382;-74
2022/02/11 07:52:05;;;;;;;19.83;2.08;;;3.90;99.90;;;;;;5000520;28;20046;-74
2022/02/11 07:54:31;;;;;;;23.13;1.60;;;3.90;99.90;;;;;;4999438;28;20041;-75
2022/02/11 07:56:58;;;;;;;22.03;1.83;;;4.00;99.90;;;;;;4998026;28;20065;-74
2022/02/11 07:59:24;;;;;;;16.67;1.77;;;4.00;99.90;;;;;;4979118;28;20038;-74
2022/02/11 08:01:51;;;;;;;20.63;2.37;;;4.10;99.90;;;;;;5003327;28;20459;-74
2022/02/11 08:04:17;;;;;;;16.67;1.65;;;4.10;99.90;;;;;;5000101;28;20045;-75
2022/02/11 08:06:44;;;;;;;19.10;2.13;;;4.20;99.90;;;;;;4964966;28;20405;-75
2022/02/11 08:09:10;;;;;;;16.38;1.63;;;4.20;99.90;;;;;;5000842;28;20389;-74
2022/02/11 08:11:37;;;;;;;14.05;1.92;;;4.30;99.90;;;;;;4975269;28;20021;-74
2022/02/11 08:14:04;;;;;;;22.50;2.07;;;4.40;99.90;;;;;;4999112;28;20030;-74
2022/02/11 08:16:30;;;;;;;18.42;2.38;;;4.40;99.90;;;;;;4999995;28;20040;-74
2022/02/11 08:18:57;;;;;;;16.65;1.42;;;4.40;99.90;;;;;;4982697;28;20054;-74
2022/02/11 08:21:24;;;;;;;17.83;2.38;;;4.50;99.90;;;;;;4983886;28;20928;-74
2022/02/11 08:23:54;;;;;;;20.07;2.47;;;4.60;99.90;;;;;;5000604;28;20030;-75
2022/02/11 08:26:21;;;;;;;22.35;2.58;;;4.70;99.90;;;;;;4998037;28;20045;-74
2022/02/11 08:28:47;;;;;;;19.65;3.08;;;4.80;99.90;;;;;;4998571;28;20031;-74
2022/02/11 08:31:14;;;;;;;20.60;2.13;;;4.80;99.90;;;;;;4981877;28;20049;-74
2022/02/11 08:33:40;;;;;;;20.60;3.15;;;4.90;99.90;;;;;;4998881;28;20038;-75
2022/02/11 08:36:07;;;;;;;19.23;2.33;;;4.90;99.90;;;;;;4980925;28;20053;-74
2022/02/11 08:38:33;;;;;;;24.55;2.40;;;4.90;99.90;;;;;;4997720;28;20409;-74
2022/02/11 08:41:00;;;;;;;20.23;3.10;;;4.90;99.90;;;;;;4984172;28;20040;-74
2022/02/11 08:43:27;;;;;;;18.15;2.10;;;4.90;99.90;;;;;;4986015;28;20033;-73
2022/02/11 08:45:53;;;;;;;17.73;2.58;;;5.00;99.90;;;;;;4981248;28;20045;-74
2022/02/11 08:48:20;;;;;;;21.85;2.63;;;5.10;99.90;;;;;;4998777;28;20037;-74
2022/02/11 08:50:46;;;;;;;20.98;3.35;;;5.20;99.90;;;;;;4997552;28;20362;-73
2022/02/11 08:53:13;;;;;;;27.58;2.40;;;5.30;99.90;;;;;;4968023;28;20054;-74
2022/02/11 08:55:39;;;;;;;22.92;2.72;;;5.30;99.90;;;;;;4966052;28;20045;-74
2022/02/11 08:58:06;;;;;;;21.48;2.75;;;5.50;99.90;;;;;;4965034;28;20061;-74
2022/02/11 09:00:33;;;;;;;22.33;2.33;;;5.60;99.90;;;;;;4977695;28;20433;-74
2022/02/11 09:03:00;;;;;;;23.35;2.97;;;5.70;99.90;;;;;;5000926;28;20074;-74
2022/02/11 09:05:28;;;;;;;17.83;2.22;;;5.90;99.90;;;;;;4979652;28;20045;-74
2022/02/11 09:07:55;;;;;;;17.92;2.25;;;6.00;99.90;;;;;;4961565;28;20398;-74
2022/02/11 09:10:23;;;;;;;23.98;2.70;;;6.10;99.90;;;;;;4995788;28;20041;-74
2022/02/11 09:12:49;;;;;;;20.83;2.47;;;6.20;99.90;;;;;;4999395;28;20390;-74
2022/02/11 09:15:17;;;;;;;21.05;2.50;;;6.20;99.90;;;;;;4979048;28;20053;-74
2022/02/11 09:17:43;;;;;;;23.98;2.97;;;6.20;99.90;;;;;;4995765;28;20481;-74
2022/02/11 09:20:10;;;;;;;21.92;2.90;;;6.20;99.90;;;;;;4982795;28;20052;-75
2022/02/11 09:22:37;;;;;;;23.17;3.05;;;6.20;99.90;;;;;;4981321;28;20058;-75
2022/02/11 09:25:04;;;;;;;26.67;2.63;;;6.20;99.90;;;;;;4979093;28;20053;-76
2022/02/11 09:27:30;;;;;;;25.10;2.60;;;6.30;99.90;;;;;;4993333;28;20116;-77
2022/02/11 09:29:57;;;;;;;20.75;2.03;;;6.30;99.90;;;;;;4976214;28;20034;-76
2022/02/11 09:32:23;;;;;;;22.25;3.20;;;6.40;99.90;;;;;;4978646;28;20049;-76
2022/02/11 09:34:50;;;;;;;23.45;3.83;;;6.50;99.90;;;;;;4992441;28;20385;-75
2022/02/11 09:37:17;;;;;;;18.23;2.88;;;6.50;99.90;;;;;;4992333;28;20047;-74
2022/02/11 09:39:43;;;;;;;19.17;2.75;;;6.60;99.90;;;;;;4995028;28;20026;-75
2022/02/11 09:42:11;;;;;;;19.13;3.65;;;6.50;99.90;;;;;;4994286;28;20050;-75
2022/02/11 09:44:38;;;;;;;20.95;2.75;;;6.50;99.90;;;;;;4972055;28;20053;-75
2022/02/11 09:47:05;;;;;;;23.60;2.58;;;6.60;99.90;;;;;;4973577;28;20034;-75
2022/02/11 09:49:31;;;;;;;16.75;1.75;;;6.60;99.90;;;;;;4991604;28;20038;-75
2022/02/11 09:51:58;;;;;;;8.85;1.33;;;6.60;99.90;;;;;;4977781;28;20462;-76
2022/02/11 09:54:25;;;;;;;13.73;1.27;;;6.70;99.90;;;;;;4943116;28;20038;-75
2022/02/11 09:56:51;;;;;;;12.25;1.00;;;6.60;99.90;;;;;;4993394;28;20038;-75
2022/02/11 09:59:18;;;;;;;11.70;1.27;;;6.70;99.90;;;;;;4963673;28;20026;-76
2022/02/11 10:01:45;;;;;;;10.77;1.52;;;6.80;99.90;;;;;;4998519;28;20042;-75
2022/02/11 10:04:22;;;;;;;14.65;2.00;;;7.00;99.90;;;;;;4995592;28;20030;-75
2022/02/11 10:06:50;;;;;;;8.45;1.83;;;7.10;99.90;;;;;;4995110;28;20049;-75
2022/02/11 10:09:22;;;;;;;13.65;1.58;;;7.20;99.90;;;;;;4976983;28;20485;-75
2022/02/11 10:11:50;;;;;;;9.93;0.90;;;7.30;99.90;;;;;;4997915;28;20466;-75
2022/02/11 10:14:24;;;;;;;14.65;1.42;;;7.40;99.90;;;;;;4976766;28;20041;-76
2022/02/11 10:17:05;;;;;;;13.00;1.98;;;7.40;99.90;;;;;;4994518;28;20034;-75
2022/02/11 10:19:52;;;;;;;12.65;1.77;;;7.40;99.90;;;;;;4995699;28;20029;-75
2022/02/11 10:22:21;;;;;;;10.60;1.15;;;7.40;99.90;;;;;;4976586;28;20034;-75
2022/02/11 10:24:49;;;;;;;13.40;1.38;;;7.30;99.90;;;;;;4980776;28;20057;-75
2022/02/11 10:27:24;;;;;;;12.35;0.95;;;7.30;99.90;;;;;;4964244;28;20386;-75
2022/02/11 10:29:54;;;;;;;10.27;1.08;;;7.40;99.90;;;;;;4999152;28;20030;-75
2022/02/11 10:32:36;;;;;;;12.35;1.73;;;7.40;99.90;;;;;;4995993;28;20023;-76
2022/02/11 10:35:03;;;;;;;12.57;1.00;;;7.50;99.90;;;;;;4960279;28;20033;-76
2022/02/11 10:37:29;;;;;;;8.85;1.23;;;7.60;99.90;;;;;;4997211;28;20386;-76
2022/02/11 10:39:58;;;;;;;9.10;0.82;;;7.90;99.90;;;;;;4995562;28;20054;-76
2022/02/11 10:42:51;;;;;;;8.75;0.95;;;8.10;99.90;;;;;;4998423;28;20030;-76
2022/02/11 10:45:28;;;;;;;8.98;0.85;;;8.50;99.90;;;;;;4957434;28;20054;-76
2022/02/11 10:48:18;;;;;;;10.80;1.33;;;8.80;99.90;;;;;;4975644;28;20049;-74
2022/02/11 10:51:07;;;;;;;10.55;0.98;;;9.00;99.90;;;;;;4973440;28;20039;-75
2022/02/11 10:53:35;;;;;;;9.45;2.95;;;9.20;99.90;;;;;;4990224;28;20034;-76
2022/02/11 10:56:03;;;;;;;7.65;1.52;;;9.40;99.90;;;;;;4996475;28;20042;-76
2022/02/11 10:58:32;;;;;;;10.38;2.42;;;9.70;99.90;;;;;;4973207;28;20030;-76
2022/02/11 11:01:01;;;;;;;8.50;1.10;;;9.90;99.90;;;;;;4978033;28;20509;-78
2022/02/11 11:03:31;;;;;;;6.30;1.02;;;10.00;99.90;;;;;;4958478;28;20046;-77
2022/02/11 11:06:01;;;;;;;6.20;0.80;;;10.20;99.90;;;;;;4998684;28;20041;-76
2022/02/11 11:08:33;;;;;;;9.65;1.85;;;10.50;99.90;;;;;;4992094;28;20018;-77
2022/02/11 11:11:04;;;;;;;9.10;1.58;;;10.80;99.90;;;;;;4973876;28;20038;-76
2022/02/11 11:13:32;;;;;;;8.10;1.15;;;10.80;99.90;;;;;;4995404;28;20057;-76
2022/02/11 11:16:00;;;;;;;9.25;0.85;;;10.50;99.90;;;;;;4993950;28;20026;-75
2022/02/11 11:18:27;;;;;;;9.77;1.50;;;10.10;99.60;;;;;;4991660;28;20042;-75
2022/02/11 11:20:56;;;;;;;10.20;1.60;;;9.70;99.30;;;;;;4991929;28;20409;-76
2022/02/11 11:23:24;;;;;;;9.02;1.35;;;9.40;99.90;;;;;;4972964;28;20034;-75
2022/02/11 11:26:08;;;;;;;10.48;1.27;;;9.10;99.50;;;;;;4978235;28;20030;-75
2022/02/11 11:28:47;;;;;;;10.45;1.00;;;8.80;98.90;;;;;;4988381;28;20034;-75
2022/02/11 11:31:25;;;;;;;8.68;1.17;;;8.50;99.30;;;;;;4977437;28;20037;-76
2022/02/11 11:34:12;;;;;;;9.43;0.90;;;8.20;99.70;;;;;;4994325;28;20030;-75
2022/02/11 11:36:50;;;;;;;12.90;1.73;;;8.00;99.90;;;;;;4994805;28;20038;-74
2022/02/11 11:39:20;;;;;;;12.63;1.27;;;8.00;99.60;;;;;;4989667;28;20050;-75
2022/02/11 11:42:11;;;;;;;8.70;0.85;;;7.90;99.80;;;;;;4974330;28;20034;-75
2022/02/11 11:44:49;;;;;;;9.15;1.75;;;7.90;99.40;;;;;;4992871;28;20035;-75
2022/02/11 11:47:41;;;;;;;16.00;5.13;;;8.00;99.30;;;;;;4992357;28;20196;-75
2022/02/11 11:50:09;;;;;;;8.85;2.10;;;8.10;98.70;;;;;;4998468;28;20027;-76
2022/02/11 11:52:44;;;;;;;12.15;1.73;;;8.10;98.90;;;;;;4971506;28;20041;-78
2022/02/11 11:55:15;;;;;;;8.48;0.80;;;8.20;98.20;;;;;;4992251;28;20034;-76
2022/02/11 11:57:41;;;;;;;7.78;0.60;;;8.30;99.00;;;;;;4990943;28;20038;-74
2022/02/11 12:00:08;;;;;;;8.48;0.70;;;8.50;98.30;;;;;;4994468;28;20053;-74
2022/02/11 12:02:38;;;;;;;10.43;0.98;;;8.70;98.30;;;;;;4988309;28;20053;-75
2022/02/11 12:05:05;;;;;;;6.55;0.88;;;8.90;98.00;;;;;;4993983;28;20665;-75
2022/02/11 12:07:34;;;;;;;8.73;0.88;;;9.00;96.50;;;;;;4990536;28;20062;-74
2022/02/11 12:10:04;;;;;;;10.27;1.02;;;9.00;97.40;;;;;;4996794;28;20339;-74
2022/02/11 12:12:33;;;;;;;8.95;0.90;;;9.00;97.00;;;;;;4994659;28;20041;-77
2022/02/11 12:15:04;;;;;;;11.85;1.08;;;9.10;96.90;;;;;;4998365;28;20478;-75
2022/02/11 12:17:32;;;;;;;8.55;0.50;;;9.30;96.70;;;;;;4991480;28;20351;-76
2022/02/11 12:19:59;;;;;;;10.25;0.80;;;9.30;94.90;;;;;;4975943;28;20046;-76
2022/02/11 12:22:28;;;;;;;8.77;0.85;;;9.30;95.10;;;;;;4973496;28;20037;-76
2022/02/11 12:27:47;;;;;;;10.05;1.13;;;9.30;95.70;;;;;;4992931;28;20045;-75
2022/02/11 12:30:16;;;;;;;10.85;2.05;;;9.50;95.40;;;;;;4976728;28;20478;-75
2022/02/11 12:32:43;;;;;;;10.30;1.75;;;9.60;95.40;;;;;;4991138;28;20030;-76
2022/02/11 12:35:21;;;;;;;14.43;1.50;;;9.40;94.50;;;;;;4990381;28;20042;-75
2022/02/11 12:37:48;;;;;;;8.68;1.60;;;9.00;94.50;;;;;;4987107;28;20038;-75
2022/02/11 12:40:25;;;;;;;8.35;1.95;;;8.70;95.10;;;;;;4974084;28;20030;-75
2022/02/11 12:42:57;;;;;;;4.80;1.00;;;8.60;95.60;;;;;;4990613;28;20501;-75
2022/02/11 12:45:25;;;;;;;5.80;0.68;;;8.60;96.30;;;;;;4992098;28;20049;-76
2022/02/11 12:47:53;;;;;;;8.27;0.63;;;8.60;95.50;;;;;;4991841;28;20401;-76
2022/02/11 12:50:21;;;;;;;9.35;0.88;;;8.60;95.10;;;;;;4993910;28;20034;-76
2022/02/11 12:52:49;;;;;;;4.05;0.70;;;8.50;94.50;;;;;;4992816;28;20397;-76
2022/02/11 12:55:22;;;;;;;5.70;0.65;;;8.40;94.20;;;;;;4994545;28;20038;-76
2022/02/11 12:57:51;;;;;;;7.25;0.75;;;8.30;93.20;;;;;;4991052;28;20508;-75
2022/02/11 13:00:20;;;;;;;11.30;1.10;;;8.20;93.60;;;;;;4993988;28;20493;-75
2022/02/11 13:02:50;;;;;;;6.65;0.82;;;8.00;93.60;;;;;;4992633;28;20486;-76
2022/02/11 13:05:23;;;;;;;6.90;0.82;;;8.00;93.50;;;;;;4993280;28;20037;-76
2022/02/11 13:07:51;;;;;;;9.57;0.93;;;8.00;93.80;;;;;;4992748;28;20069;-76
2022/02/11 13:10:21;;;;;;;8.27;0.93;;;8.00;93.60;;;;;;4977820;28;20386;-78
2022/02/11 13:12:56;;;;;;;9.65;0.80;;;8.10;93.10;;;;;;4994265;28;20042;-78
2022/02/11 13:15:28;;;;;;;8.75;0.77;;;8.30;92.80;;;;;;4996134;28;20065;-77
2022/02/11 13:18:16;;;;;;;6.03;0.60;;;8.50;92.40;;;;;;4992246;28;20530;-80
2022/02/11 13:20:48;;;;;;;8.15;0.70;;;8.60;92.60;;;;;;4978823;28;20049;-81
2022/02/11 13:23:19;;;;;;;5.35;0.50;;;8.70;92.50;;;;;;4995695;28;20040;-76
2022/02/11 13:25:46;;;;;;;5.78;0.55;;;8.70;91.60;;;;;;4979748;28;20030;-75
2022/02/11 13:28:15;;;;;;;7.28;0.90;;;8.50;91.10;;;;;;4975887;28;20034;-76
2022/02/11 13:30:45;;;;;;;8.27;1.00;;;8.30;90.50;;;;;;4977910;28;20032;-75
2022/02/11 13:33:36;;;;;;;6.68;0.77;;;8.20;90.60;;;;;;4999090;28;20041;-76
2022/02/11 13:36:08;;;;;;;7.75;0.77;;;8.10;91.10;;;;;;4992863;28;20389;-77
2022/02/11 13:38:37;;;;;;;6.28;1.08;;;8.10;91.20;;;;;;4976577;28;20039;-76
2022/02/11 13:41:11;;;;;;;4.83;0.50;;;8.20;91.30;;;;;;4995736;28;20030;-77
2022/02/11 13:43:54;;;;;;;10.43;2.70;;;8.20;91.70;;;;;;4995553;28;20281;-76
2022/02/11 13:46:32;;;;;;;14.68;3.15;;;8.30;91.90;;;;;;4964866;28;20418;-77
2022/02/11 13:49:12;;;;;;;5.55;0.80;;;8.30;92.30;;;;;;4971655;28;20034;-76
2022/02/11 13:51:40;;;;;;;28.30;12.77;;;8.40;92.70;;;;;;4990035;28;20042;-77
2022/02/11 13:54:17;;;;;;;9.20;1.55;;;8.40;92.60;;;;;;4958698;28;20030;-77
2022/02/11 13:56:49;;;;;;;8.50;2.00;;;8.50;92.70;;;;;;4989031;28;20061;-77
2022/02/11 13:59:24;;;;;;;7.70;1.17;;;8.50;93.10;;;;;;4990573;28;20046;-76
2022/02/11 14:01:51;;;;;;;6.07;1.08;;;8.50;93.20;;;;;;4991208;28;20497;-77
2022/02/11 14:04:20;;;;;;;4.90;0.50;;;8.50;93.50;;;;;;4984771;28;20027;-76
2022/02/11 14:06:56;;;;;;;8.82;0.40;;;8.30;93.70;;;;;;4964449;28;20413;-78
2022/02/11 14:09:37;;;;;;;7.63;0.77;;;8.10;93.90;;;;;;4991512;28;20038;-77
2022/02/11 14:12:07;;;;;;;9.02;0.70;;;7.90;93.80;;;;;;4996132;28;20065;-75
2022/02/11 14:14:35;;;;;;;5.45;0.40;;;7.80;93.70;;;;;;4958175;28;20583;-75
2022/02/11 14:17:04;;;;;;;6.40;0.60;;;7.70;94.00;;;;;;4990221;28;20395;-75
2022/02/11 14:19:30;;;;;;;5.18;1.02;;;7.70;94.40;;;;;;4995246;28;20042;-75
2022/02/11 14:21:58;;;;;;;7.75;0.77;;;7.80;94.70;;;;;;4994816;28;20039;-75
2022/02/11 14:24:27;;;;;;;5.82;0.50;;;7.80;93.90;;;;;;4993313;28;20030;-75
2022/02/11 14:26:54;;;;;;;8.48;0.60;;;7.80;93.70;;;;;;4974836;28;20370;-75
2022/02/11 14:29:22;;;;;;;6.15;0.60;;;7.80;94.10;;;;;;4973603;28;20042;-75
2022/02/11 14:31:50;;;;;;;5.03;0.65;;;7.80;93.90;;;;;;4992823;28;20041;-75
2022/02/11 14:34:17;;;;;;;9.13;0.75;;;7.80;94.20;;;;;;4992777;28;20050;-75
2022/02/11 14:36:44;;;;;;;7.78;1.13;;;7.80;93.50;;;;;;4976345;28;20061;-75
2022/02/11 14:39:16;;;;;;;5.93;0.50;;;7.90;93.60;;;;;;4991018;28;20037;-75
2022/02/11 14:41:47;;;;;;;;;;;7.90;93.70;;;;;;4975031;28;20042;-75
2022/02/11 14:44:19;;;;;;;7.45;0.60;;;7.90;94.10;;;;;;4989046;28;19921;-75
2022/02/11 14:46:47;;;;;;;7.90;1.13;;;7.90;94.00;;;;;;4987957;28;20371;-75
2022/02/11 14:49:17;;;;;;;6.07;0.52;;;7.80;93.50;;;;;;4987353;28;20354;-75
2022/02/11 14:51:49;;;;;;;7.40;0.82;;;7.80;93.90;;;;;;4990542;28;20022;-75
2022/02/11 14:54:16;;;;;;;5.63;0.63;;;7.70;93.90;;;;;;4975210;28;20037;-75
2022/02/11 14:56:44;;;;;;;5.00;0.85;;;7.60;93.90;;;;;;4988317;28;20384;-75
2022/02/11 14:59:11;;;;;;;9.25;1.50;;;7.60;94.10;;;;;;4987787;28;20407;-75
2022/02/11 15:01:42;;;;;;;5.95;0.50;;;7.60;93.80;;;;;;4991911;28;20406;-75
2022/02/11 15:04:08;;;;;;;4.93;1.00;;;7.60;93.70;;;;;;4992252;28;20509;-75
2022/02/11 15:06:35;;;;;;;8.90;0.70;;;7.50;93.70;;;;;;4996018;28;20516;-75
2022/02/11 15:09:02;;;;;;;5.07;0.75;;;7.50;94.10;;;;;;4974533;28;20034;-75
2022/02/11 15:11:29;;;;;;;8.25;0.80;;;7.40;94.10;;;;;;4996622;28;20516;-75
2022/02/11 15:13:56;;;;;;;4.70;0.60;;;7.20;94.00;;;;;;4995224;28;20033;-75
2022/02/11 15:16:22;;;;;;;8.15;0.70;;;7.10;94.20;;;;;;4999877;28;20049;-75
2022/02/11 15:18:49;;;;;;;7.45;0.70;;;7.10;94.50;;;;;;4975842;28;20049;-75
2022/02/11 15:21:18;;;;;;;5.22;0.47;;;7.10;94.60;;;;;;4998332;28;20049;-75
2022/02/11 15:23:46;;;;;;;5.60;0.40;;;7.10;95.00;;;;;;4956247;28;20042;-75
2022/02/11 15:26:15;;;;;;;6.18;0.70;;;7.20;95.20;;;;;;4992186;28;20048;-75
2022/02/11 15:28:43;;;;;;;7.93;0.63;;;7.20;95.40;;;;;;4974821;28;20038;-75
2022/02/11 15:31:11;;;;;;;7.07;0.40;;;7.30;95.60;;;;;;4992966;28;20371;-75
2022/02/11 15:33:39;;;;;;;3.63;0.38;;;7.30;95.80;;;;;;4995548;28;20026;-75
2022/02/11 15:36:07;;;;;;;4.22;0.60;;;7.40;96.10;;;;;;4982716;28;20053;-76
2022/02/11 15:38:34;;;;;;;6.72;0.47;;;7.40;96.40;;;;;;4996160;28;20386;-75
2022/02/11 15:41:01;;;;;;;6.50;0.75;;;7.40;96.50;;;;;;4996537;28;20365;-76
2022/02/11 15:43:28;;;;;;;6.78;0.57;;;7.40;96.60;;;;;;4982134;28;20046;-75
2022/02/11 15:45:55;;;;;;;4.80;1.02;;;7.40;96.80;;;;;;4994861;28;20034;-76
2022/02/11 15:48:21;;;;;;;7.50;0.50;;;7.40;96.90;;;;;;4976362;28;20045;-75
2022/02/11 15:50:48;;;;;;;8.95;0.80;;;7.40;97.00;;;;;;4979400;28;20045;-75
2022/02/11 15:53:16;;;;;;;11.15;1.10;;;7.30;97.10;;;;;;4998603;28;20390;-75
2022/02/11 15:55:43;;;;;;;3.95;0.50;;;7.30;96.80;;;;;;4979830;28;20026;-75
2022/02/11 15:58:09;;;;;;;7.22;0.70;;;7.20;97.10;;;;;;4992113;28;20038;-75
2022/02/11 16:00:38;;;;;;;9.20;0.65;;;7.30;97.20;;;;;;4997229;28;20415;-76
2022/02/11 16:03:05;;;;;;;8.95;0.65;;;7.20;97.50;;;;;;4998827;28;20038;-76
2022/02/11 16:05:32;;;;;;;10.00;0.80;;;7.20;97.20;;;;;;4996580;28;20030;-75
2022/02/11 16:07:58;;;;;;;6.95;0.60;;;7.20;97.50;;;;;;4974543;28;20038;-75
2022/02/11 16:10:26;;;;;;;7.85;0.50;;;7.10;97.90;;;;;;4994965;28;20038;-75
2022/02/11 16:12:54;;;;;;;3.72;0.68;;;7.10;98.10;;;;;;4998115;28;20410;-77
2022/02/11 16:15:21;;;;;;;4.30;0.77;;;7.10;98.40;;;;;;4995641;28;20037;-78
2022/02/11 16:18:00;;;;;;;3.33;0.50;;;7.00;98.50;;;;;;4978815;28;20035;-78
2022/02/11 16:20:32;;;;;;;6.10;0.70;;;6.90;98.80;;;;;;4977546;28;20045;-75
2022/02/11 16:22:59;;;;;;;5.95;0.52;;;6.80;98.80;;;;;;4992999;28;20526;-74
2022/02/11 16:25:26;;;;;;;7.57;0.68;;;6.80;99.10;;;;;;4995929;28;20029;-77
2022/02/11 16:27:53;;;;;;;4.65;0.60;;;6.80;99.30;;;;;;4976886;28;20880;-75
2022/02/11 16:30:23;;;;;;;4.03;0.50;;;6.80;99.50;;;;;;4977535;28;20027;-75
2022/02/11 16:32:50;;;;;;;6.13;0.77;;;6.80;99.70;;;;;;4979466;28;20042;-72
2022/02/11 16:35:17;;;;;;;7.82;0.70;;;6.70;99.90;;;;;;4996931;28;20038;-73
2022/02/11 16:37:45;;;;;;;8.38;0.70;;;6.70;99.90;;;;;;4973123;28;20041;-74
2022/02/11 16:40:13;;;;;;;6.47;0.60;;;6.60;99.90;;;;;;4982248;28;20050;-74
2022/02/11 16:42:40;;;;;;;9.10;0.60;;;6.60;99.90;;;;;;4992925;28;20389;-73
2022/02/11 16:45:07;;;;;;;9.48;0.75;;;6.50;99.90;;;;;;4992204;28;20045;-73
2022/02/11 16:47:36;;;;;;;7.93;0.88;;;6.40;99.90;;;;;;4975080;28;20038;-73
2022/02/11 16:50:05;;;;;;;5.40;0.55;;;6.30;99.90;;;;;;4976124;28;20034;-75
2022/02/11 16:52:33;;;;;;;5.75;0.50;;;6.20;99.90;;;;;;4993717;28;20033;-75
2022/02/11 16:55:05;;;;;;;7.47;0.57;;;6.00;99.90;;;;;;4977894;28;20047;-75
2022/02/11 16:57:32;;;;;;;5.20;0.40;;;5.90;99.90;;;;;;4989941;28;20037;-75